createdAt,value
2022-11-14T00:01:35.702Z,19.58
2022-11-14T00:05:58.234Z,23.63
2022-11-14T00:10:20.047Z,34.42
2022-11-14T00:14:41.569Z,13.48
2022-11-14T00:19:03.104Z,17.63
2022-11-14T00:23:25.648Z,29.60
2022-11-14T00:27:46.914Z,78.22
2022-11-14T00:32:08.613Z,73.82
2022-11-14T00:36:29.700Z,70.97
2022-11-14T00:40:52.366Z,60.53
2022-11-14T00:45:13.613Z,63.60
2022-11-14T00:49:35.954Z,27.42
2022-11-14T00:53:57.345Z,20.45
2022-11-14T00:58:19.827Z,34.63
2022-11-14T01:02:41.132Z,27.98
2022-11-14T01:07:02.511Z,27.38
2022-11-14T01:11:23.947Z,22.40
2022-11-14T01:15:49.393Z,12.90
2022-11-14T01:20:11.077Z,16.33
2022-11-14T01:24:33.679Z,11.27
2022-11-14T01:28:55.196Z,12.93
2022-11-14T01:33:17.873Z,15.77
2022-11-14T01:37:39.075Z,13.18
2022-11-14T01:42:00.401Z,11.18
2022-11-14T01:46:26.111Z,11.55
2022-11-14T01:50:51.398Z,10.98
2022-11-14T01:55:12.498Z,18.08
2022-11-14T01:59:38.706Z,17.30
2022-11-14T02:04:02.589Z,10.50
2022-11-14T02:08:27.708Z,8.95
2022-11-14T02:12:50.672Z,9.23
2022-11-14T02:17:29.062Z,19.50
2022-11-14T02:21:53.224Z,22.73
2022-11-14T02:26:17.470Z,20.48
2022-11-14T02:30:38.972Z,10.18
2022-11-14T02:35:00.046Z,21.10
2022-11-14T02:39:22.614Z,18.15
2022-11-14T02:43:44.129Z,11.45
2022-11-14T02:48:06.357Z,13.30
2022-11-14T02:52:27.690Z,10.48
2022-11-14T02:56:50.216Z,11.95
2022-11-14T03:01:20.779Z,9.82
2022-11-14T03:05:42.602Z,11.40
2022-11-14T03:10:04.070Z,10.25
2022-11-14T03:14:26.856Z,9.10
2022-11-14T03:18:47.965Z,9.57
2022-11-14T03:23:09.158Z,6.35
2022-11-14T03:27:30.348Z,6.90
2022-11-14T03:31:53.061Z,6.45
2022-11-14T03:36:14.129Z,7.07
2022-11-14T03:40:35.248Z,7.25
2022-11-14T03:44:56.491Z,10.95
2022-11-14T03:49:19.203Z,8.10
2022-11-14T03:53:40.294Z,6.80
2022-11-14T03:58:01.762Z,7.68
2022-11-14T04:02:23.282Z,6.95
2022-11-14T04:06:46.022Z,6.72
2022-11-14T04:11:07.418Z,8.23
2022-11-14T04:15:28.549Z,8.05
2022-11-14T04:19:50.363Z,6.00
2022-11-14T04:24:13.230Z,6.90
2022-11-14T04:28:34.448Z,8.27
2022-11-14T04:32:55.454Z,7.43
2022-11-14T04:37:16.732Z,7.20
2022-11-14T04:41:39.457Z,7.18
2022-11-14T04:46:00.512Z,8.52
2022-11-14T04:50:21.936Z,9.85
2022-11-14T04:54:43.093Z,7.95
2022-11-14T04:59:05.730Z,7.15
2022-11-14T05:03:26.777Z,8.73
2022-11-14T05:07:47.905Z,8.50
2022-11-14T05:12:09.217Z,9.63
2022-11-14T05:16:31.727Z,8.45
2022-11-14T05:20:52.679Z,9.23
2022-11-14T05:25:13.919Z,9.90
2022-11-14T05:29:35.178Z,15.30
2022-11-14T05:33:57.601Z,11.35
2022-11-14T05:38:18.796Z,18.75
2022-11-14T05:42:39.835Z,26.80
2022-11-14T05:47:01.106Z,34.13
2022-11-14T05:51:23.649Z,32.28
2022-11-14T05:55:44.754Z,53.40
2022-11-14T06:00:06.929Z,45.10
2022-11-14T06:04:28.283Z,65.25
2022-11-14T06:08:51.395Z,27.42
2022-11-14T06:13:12.746Z,16.83
2022-11-14T06:17:33.915Z,26.45
2022-11-14T06:21:54.984Z,16.95
2022-11-14T06:26:22.629Z,8.88
2022-11-14T06:30:43.973Z,10.13
2022-11-14T06:35:06.332Z,9.55
2022-11-14T06:39:27.492Z,10.20
2022-11-14T06:43:51.232Z,9.77
2022-11-14T06:48:12.779Z,9.05
2022-11-14T06:52:33.907Z,8.98
2022-11-14T06:56:55.053Z,8.15
2022-11-14T07:01:19.640Z,8.90
2022-11-14T07:05:40.818Z,7.93
2022-11-14T07:10:01.879Z,7.90
2022-11-14T07:14:22.957Z,9.02
2022-11-14T07:18:45.544Z,9.02
2022-11-14T07:23:06.844Z,14.02
2022-11-14T07:27:28.065Z,13.80
2022-11-14T07:31:49.318Z,12.70
2022-11-14T07:36:12.712Z,18.75
2022-11-14T07:40:34.004Z,16.15
2022-11-14T07:44:55.124Z,12.27
2022-11-14T07:49:16.234Z,10.98
2022-11-14T07:53:38.753Z,11.63
2022-11-14T07:58:00.767Z,8.35
2022-11-14T08:02:22.249Z,6.93
2022-11-14T08:06:43.274Z,10.13
2022-11-14T08:11:06.104Z,7.03
2022-11-14T08:15:28.069Z,7.28
2022-11-14T08:19:49.137Z,7.95
2022-11-14T08:24:10.341Z,5.63
2022-11-14T08:28:33.307Z,6.63
2022-11-14T08:32:54.798Z,5.45
2022-11-14T08:37:15.887Z,14.23
2022-11-14T08:41:36.960Z,11.32
2022-11-14T08:46:01.816Z,11.10
2022-11-14T08:50:23.335Z,12.32
2022-11-14T08:54:44.380Z,11.95
2022-11-14T08:59:06.018Z,10.70
2022-11-14T09:03:28.730Z,12.32
2022-11-14T09:07:49.790Z,11.93
2022-11-14T09:12:10.987Z,13.90
2022-11-14T09:16:33.383Z,13.45
2022-11-14T09:21:00.973Z,19.75
2022-11-14T09:25:22.746Z,12.70
2022-11-14T09:29:44.539Z,11.52
2022-11-14T09:34:05.742Z,10.82
2022-11-14T09:38:28.658Z,9.85
2022-11-14T09:43:06.912Z,6.38
2022-11-14T09:47:31.228Z,9.55
2022-11-14T09:51:58.056Z,7.40
2022-11-14T09:56:25.824Z,4.45
2022-11-14T10:00:52.761Z,9.18
2022-11-14T10:05:25.655Z,7.13
2022-11-14T10:09:59.802Z,3.90
2022-11-14T10:14:59.916Z,4.30
2022-11-14T10:19:28.143Z,6.30
2022-11-14T10:23:57.112Z,4.60
2022-11-14T10:28:34.748Z,4.85
2022-11-14T10:33:24.069Z,5.45
2022-11-14T10:37:58.875Z,5.65
2022-11-14T10:42:26.485Z,4.70
2022-11-14T10:46:51.751Z,4.20
2022-11-14T10:51:22.366Z,4.20
2022-11-14T10:56:02.958Z,4.60
2022-11-14T11:00:25.644Z,6.28
2022-11-14T11:04:47.028Z,2.90
2022-11-14T11:09:31.515Z,2.95
2022-11-14T11:13:56.051Z,3.58
2022-11-14T11:18:27.804Z,3.90
2022-11-14T11:22:49.188Z,4.32
2022-11-14T11:27:22.490Z,4.78
2022-11-14T11:31:54.932Z,4.45
2022-11-14T11:36:19.901Z,4.30
2022-11-14T11:45:12.884Z,4.75
2022-11-14T11:49:41.838Z,5.30
2022-11-14T11:54:10.222Z,6.95
2022-11-14T11:58:39.049Z,3.30
2022-11-14T12:03:02.897Z,4.35
2022-11-14T12:07:35.777Z,3.88
2022-11-14T12:12:03.324Z,2.65
2022-11-14T12:16:36.742Z,4.20
2022-11-14T12:21:11.711Z,3.90
2022-11-14T12:25:46.045Z,3.58
2022-11-14T12:30:14.790Z,4.63
2022-11-14T12:34:41.361Z,3.25
2022-11-14T12:39:04.675Z,3.38
2022-11-14T12:43:36.457Z,2.78
2022-11-14T12:48:23.494Z,6.07
2022-11-14T12:52:48.596Z,5.22
2022-11-14T12:57:39.670Z,3.95
2022-11-14T13:02:22.684Z,3.70
2022-11-14T13:06:54.951Z,5.30
2022-11-14T13:11:55.382Z,4.15
2022-11-14T13:16:44.784Z,5.72
2022-11-14T13:21:34.579Z,7.80
2022-11-14T13:26:29.811Z,10.98
2022-11-14T13:31:08.157Z,10.02
2022-11-14T13:35:45.083Z,7.40
2022-11-14T13:40:14.254Z,4.18
2022-11-14T13:45:13.177Z,7.13
2022-11-14T13:49:48.932Z,6.20
2022-11-14T13:54:18.483Z,7.25
2022-11-14T13:59:19.702Z,3.50
2022-11-14T14:04:13.972Z,7.10
2022-11-14T14:08:51.647Z,4.32
2022-11-14T14:13:25.957Z,5.40
2022-11-14T14:17:56.734Z,10.45
2022-11-14T14:22:23.719Z,5.47
2022-11-14T14:31:20.111Z,7.50
2022-11-14T14:35:51.871Z,10.98
2022-11-14T14:40:25.058Z,6.75
2022-11-14T14:44:48.511Z,7.47
2022-11-14T14:49:11.423Z,10.48
2022-11-14T14:53:34.482Z,6.40
2022-11-14T14:57:56.016Z,5.75
2022-11-14T15:02:19.113Z,7.82
2022-11-14T15:06:45.946Z,8.77
2022-11-14T15:11:08.085Z,7.20
2022-11-14T15:15:31.000Z,8.55
2022-11-14T15:19:54.174Z,8.65
2022-11-14T15:24:19.978Z,10.07
2022-11-14T15:28:41.481Z,11.10
2022-11-14T15:33:04.497Z,9.90
2022-11-14T15:37:26.048Z,9.35
2022-11-14T15:41:49.044Z,10.55
2022-11-14T15:46:43.503Z,8.57
2022-11-14T15:51:04.668Z,13.32
2022-11-14T15:55:26.337Z,9.52
2022-11-14T15:59:49.477Z,11.05
2022-11-14T16:04:18.061Z,11.75
2022-11-14T16:08:39.252Z,26.90
2022-11-14T16:13:00.357Z,35.08
2022-11-14T16:17:22.763Z,16.65
2022-11-14T16:21:44.580Z,18.33
2022-11-14T16:26:06.362Z,13.95
2022-11-14T16:30:28.900Z,14.15
2022-11-14T16:34:51.451Z,18.20
2022-11-14T16:39:13.598Z,34.50
2022-11-14T16:43:35.173Z,21.02
2022-11-14T16:47:56.564Z,22.70
2022-11-14T16:52:19.797Z,13.65
2022-11-14T16:56:41.274Z,22.17
2022-11-14T17:01:02.473Z,38.10
2022-11-14T17:05:23.660Z,23.73
2022-11-14T17:09:46.157Z,10.65
2022-11-14T17:14:07.548Z,34.28
2022-11-14T17:18:31.689Z,39.15
2022-11-14T17:22:56.766Z,35.08
2022-11-14T17:27:19.500Z,25.75
2022-11-14T17:31:45.814Z,22.00
2022-11-14T17:36:09.906Z,26.90
2022-11-14T17:40:31.285Z,19.30
2022-11-14T17:44:54.199Z,19.90
2022-11-14T17:49:15.303Z,10.73
2022-11-14T17:53:36.868Z,12.90
2022-11-14T17:57:58.301Z,15.23
2022-11-14T18:02:20.837Z,23.25
2022-11-14T18:06:41.920Z,18.70
2022-11-14T18:11:04.029Z,12.90
2022-11-14T18:15:28.106Z,20.75
2022-11-14T18:19:51.306Z,32.42
2022-11-14T18:24:14.093Z,25.35
2022-11-14T18:28:35.249Z,19.88
2022-11-14T18:32:56.509Z,22.30
2022-11-14T18:37:18.944Z,11.20
2022-11-14T18:41:40.089Z,12.93
2022-11-14T18:46:12.172Z,13.85
2022-11-14T18:50:33.651Z,15.63
2022-11-14T18:54:56.097Z,18.13
2022-11-14T18:59:17.664Z,29.75
2022-11-14T19:03:39.419Z,25.35
2022-11-14T19:08:00.685Z,24.33
2022-11-14T19:12:23.520Z,22.35
2022-11-14T19:16:44.883Z,17.23
2022-11-14T19:21:06.240Z,20.95
2022-11-14T19:25:27.730Z,23.20
2022-11-14T19:29:50.765Z,19.50
2022-11-14T19:34:11.840Z,24.05
2022-11-14T19:38:33.170Z,29.77
2022-11-14T19:42:55.877Z,28.02
2022-11-14T19:47:18.334Z,26.30
2022-11-14T19:51:39.472Z,26.92
2022-11-14T19:56:01.739Z,29.05
2022-11-14T20:00:24.845Z,26.95
2022-11-14T20:04:47.752Z,29.75
2022-11-14T20:09:10.905Z,29.05
2022-11-14T20:13:33.235Z,25.13
2022-11-14T20:17:54.510Z,30.15
2022-11-14T20:22:17.246Z,26.77
2022-11-14T20:26:38.826Z,30.95
2022-11-14T20:31:02.103Z,26.88
2022-11-14T20:35:23.526Z,28.20
2022-11-14T20:39:46.294Z,27.45
2022-11-14T20:44:08.071Z,30.45
2022-11-14T20:48:31.446Z,22.17
2022-11-14T20:52:52.786Z,22.15
2022-11-14T20:57:15.309Z,28.10
2022-11-14T21:01:42.140Z,17.85
2022-11-14T21:06:06.902Z,13.55
2022-11-14T21:10:46.685Z,11.52
2022-11-14T21:15:10.634Z,11.90
2022-11-14T21:19:32.180Z,9.27
2022-11-14T21:23:53.246Z,10.25
2022-11-14T21:28:14.321Z,12.55
2022-11-14T21:32:36.826Z,11.95
2022-11-14T21:36:58.960Z,11.77
2022-11-14T21:41:22.994Z,18.00
2022-11-14T21:45:45.762Z,15.23
2022-11-14T21:50:09.194Z,10.90
2022-11-14T21:54:30.689Z,7.90
2022-11-14T21:59:12.276Z,6.70
2022-11-14T22:03:50.936Z,10.32
2022-11-14T22:08:13.775Z,7.60
2022-11-14T22:12:35.253Z,6.65
2022-11-14T22:16:56.255Z,6.72
2022-11-14T22:21:17.341Z,6.25
2022-11-14T22:25:39.964Z,5.72
2022-11-14T22:30:01.129Z,6.30
2022-11-14T22:34:22.212Z,7.85
2022-11-14T22:38:44.561Z,11.18
2022-11-14T22:43:07.129Z,7.10
2022-11-14T22:47:28.275Z,9.88
2022-11-14T22:51:49.466Z,5.13
2022-11-14T22:56:12.312Z,6.30
2022-11-14T23:00:34.916Z,12.02
2022-11-14T23:04:56.431Z,9.45
2022-11-14T23:09:17.565Z,8.15
2022-11-14T23:13:39.253Z,8.32
2022-11-14T23:18:02.270Z,8.18
2022-11-14T23:22:23.647Z,5.13
2022-11-14T23:26:45.518Z,12.57
2022-11-14T23:31:07.823Z,10.82
2022-11-14T23:35:30.720Z,7.88
2022-11-14T23:39:51.933Z,7.95
2022-11-14T23:44:13.001Z,8.63
2022-11-14T23:48:34.181Z,7.13
2022-11-14T23:52:56.839Z,8.57
2022-11-14T23:57:17.912Z,6.93
